Time;durP1;ratioP1;P1;durP2;ratioP2;P2;SDS_P1;SDS_P2;PMS_P1;PMS_P2;Temp;Humidity;BMP_temperature;BMP_pressure;BME280_temperature;BME280_humidity;BME280_pressure;Samples;Min_cycle;Max_cycle;Signal;HPM_P1;HPM_P2
2022/09/16 00:00:34;;;;;;;6.35;4.68;;;14.80;99.50;;;;;;5068180;28;20219;-89
2022/09/16 00:03:06;;;;;;;4.70;3.97;;;14.80;99.60;;;;;;5059606;28;20201;-89
2022/09/16 00:05:33;;;;;;;3.85;3.42;;;14.80;98.80;;;;;;5063586;28;20232;-88
2022/09/16 00:12:51;;;;;;;5.20;4.40;;;14.80;99.30;;;;;;5069992;28;20217;-89
2022/09/16 00:15:19;;;;;;;6.13;3.50;;;14.80;99.30;;;;;;5071586;28;20205;-90
2022/09/16 00:17:46;;;;;;;7.13;6.20;;;14.70;98.90;;;;;;5067692;28;20589;-89
2022/09/16 00:20:14;;;;;;;5.82;5.28;;;14.70;99.60;;;;;;5072909;28;20209;-88
2022/09/16 00:22:44;;;;;;;4.95;3.65;;;14.80;99.40;;;;;;5069795;28;20204;-89
2022/09/16 00:25:11;;;;;;;5.00;4.45;;;14.70;98.90;;;;;;5069475;28;20206;-89
2022/09/16 00:27:38;;;;;;;9.93;5.63;;;14.70;99.40;;;;;;5070890;28;20232;-89
2022/09/16 00:30:05;;;;;;;5.15;3.78;;;14.80;99.70;;;;;;5074716;28;20204;-89
2022/09/16 00:32:32;;;;;;;4.90;3.83;;;14.80;99.10;;;;;;5071301;28;20197;-89
2022/09/16 00:34:59;;;;;;;5.25;4.75;;;14.80;99.40;;;;;;5073438;28;20221;-89
2022/09/16 00:37:45;;;;;;;5.35;3.50;;;14.60;99.40;;;;;;5066924;28;20668;-89
2022/09/16 00:40:12;;;;;;;7.35;4.13;;;14.60;99.70;;;;;;5069773;28;20204;-89
2022/09/16 00:42:44;;;;;;;5.90;4.63;;;14.60;99.70;;;;;;5058886;28;20197;-89
2022/09/16 00:45:30;;;;;;;4.50;4.10;;;14.60;99.80;;;;;;5058862;28;20194;-87
2022/09/16 00:48:01;;;;;;;6.28;4.25;;;14.60;99.60;;;;;;5064204;28;20198;-88
2022/09/16 00:50:35;;;;;;;5.47;3.42;;;14.50;99.40;;;;;;5070276;28;20203;-89
2022/09/16 00:53:15;;;;;;;6.10;4.13;;;14.40;99.70;;;;;;5067713;28;20209;-89
2022/09/16 00:55:43;;;;;;;5.43;3.90;;;14.40;99.90;;;;;;5073628;28;20204;-89
2022/09/16 00:58:19;;;;;;;5.82;3.70;;;14.40;99.90;;;;;;5066968;28;20198;-88
2022/09/16 01:00:56;;;;;;;5.03;4.10;;;14.30;99.90;;;;;;5061905;28;20656;-88
2022/09/16 01:03:35;;;;;;;5.40;3.80;;;14.40;99.90;;;;;;5072625;28;20198;-89
2022/09/16 01:06:09;;;;;;;3.88;3.45;;;14.50;99.50;;;;;;5074313;28;20716;-88
2022/09/16 01:08:42;;;;;;;4.55;3.50;;;14.40;99.40;;;;;;5069367;28;20243;-88
2022/09/16 01:11:14;;;;;;;3.85;3.50;;;14.40;99.50;;;;;;5073319;28;20838;-88
2022/09/16 01:13:42;;;;;;;3.90;3.50;;;14.40;99.40;;;;;;5067961;28;20296;-89
2022/09/16 01:16:20;;;;;;;4.68;3.85;;;14.40;99.40;;;;;;5061823;28;20208;-89
2022/09/16 01:18:53;;;;;;;6.20;3.92;;;14.30;99.60;;;;;;5056716;28;20201;-89
2022/09/16 01:21:37;;;;;;;5.03;4.50;;;14.30;99.50;;;;;;5067053;28;20583;-89
2022/09/16 01:24:30;;;;;;;4.88;4.05;;;14.30;99.90;;;;;;5071206;28;20316;-89
2022/09/16 01:27:18;;;;;;;6.15;3.70;;;14.40;99.80;;;;;;5053044;28;20205;-89
2022/09/16 01:30:04;;;;;;;3.55;3.25;;;14.50;99.40;;;;;;5063868;28;20205;-89
2022/09/16 01:32:44;;;;;;;4.57;3.72;;;14.50;99.00;;;;;;5058933;28;20197;-90
2022/09/16 01:35:20;;;;;;;3.80;3.40;;;14.40;99.10;;;;;;5070080;28;20221;-89
2022/09/16 01:37:56;;;;;;;5.85;4.15;;;14.30;99.60;;;;;;5054052;28;20211;-89
2022/09/16 01:40:27;;;;;;;4.65;4.20;;;14.20;99.70;;;;;;5063367;28;20200;-90
2022/09/16 01:43:03;;;;;;;5.07;4.10;;;14.10;99.90;;;;;;5062825;28;20202;-89
2022/09/16 01:45:36;;;;;;;4.70;3.92;;;14.00;99.90;;;;;;5065614;28;20663;-89
2022/09/16 01:48:12;;;;;;;7.43;4.22;;;13.90;99.90;;;;;;5061236;28;20208;-89
2022/09/16 01:50:43;;;;;;;4.38;3.97;;;13.90;99.90;;;;;;5061991;28;20276;-89
2022/09/16 01:53:14;;;;;;;4.43;4.03;;;13.80;99.90;;;;;;5056941;28;20220;-89
2022/09/16 01:55:51;;;;;;;6.95;4.10;;;13.80;99.90;;;;;;5069769;28;20209;-88
2022/09/16 01:58:23;;;;;;;4.88;4.47;;;13.80;99.90;;;;;;5064738;28;20219;-88
2022/09/16 02:00:55;;;;;;;4.93;4.45;;;13.80;99.90;;;;;;5063192;28;20209;-89
2022/09/16 02:03:28;;;;;;;5.68;4.43;;;13.80;99.90;;;;;;5058720;28;20209;-89
2022/09/16 02:05:59;;;;;;;4.65;4.15;;;13.90;99.90;;;;;;5066534;28;20227;-89
2022/09/16 02:08:30;;;;;;;5.00;4.50;;;14.00;99.90;;;;;;5066069;28;20699;-89
2022/09/16 02:11:00;;;;;;;4.40;4.00;;;14.30;99.90;;;;;;5071347;28;20297;-88
2022/09/16 02:13:30;;;;;;;5.97;4.55;;;14.30;99.50;;;;;;5069667;28;20212;-89
2022/09/16 02:16:04;;;;;;;5.45;4.07;;;14.30;99.70;;;;;;5065645;28;20206;-89
2022/09/16 02:18:35;;;;;;;5.65;5.03;;;14.20;99.60;;;;;;5063793;28;20197;-89
2022/09/16 02:21:06;;;;;;;6.20;4.60;;;14.20;99.90;;;;;;5057886;28;20582;-89
2022/09/16 02:23:38;;;;;;;4.60;4.20;;;14.40;99.90;;;;;;5064850;28;20200;-89
2022/09/16 02:26:08;;;;;;;6.35;5.05;;;14.50;99.60;;;;;;5069189;28;20237;-89
2022/09/16 02:28:41;;;;;;;4.45;3.70;;;14.60;99.40;;;;;;5058157;28;20197;-89
2022/09/16 02:31:10;;;;;;;4.28;3.80;;;14.70;98.70;;;;;;5055745;28;20193;-89
2022/09/16 02:33:43;;;;;;;4.35;3.83;;;14.60;98.10;;;;;;5055742;28;20596;-89
2022/09/16 02:36:14;;;;;;;4.80;4.20;;;14.50;98.60;;;;;;5058886;28;20205;-89
2022/09/16 02:38:45;;;;;;;5.22;3.90;;;14.60;98.70;;;;;;5058044;28;20202;-87
2022/09/16 02:41:14;;;;;;;7.25;3.92;;;14.60;98.30;;;;;;5064519;28;20206;-88
2022/09/16 02:43:41;;;;;;;4.30;3.90;;;14.60;97.90;;;;;;5065793;28;20694;-90
2022/09/16 02:46:14;;;;;;;4.82;4.22;;;14.50;98.90;;;;;;5067996;28;20676;-89
2022/09/16 02:48:55;;;;;;;6.03;4.13;;;14.40;98.50;;;;;;5071573;28;20197;-89
2022/09/16 02:51:30;;;;;;;4.78;3.95;;;14.40;98.80;;;;;;5067653;28;20211;-89
2022/09/16 02:54:09;;;;;;;4.88;4.30;;;14.30;98.80;;;;;;5067795;28;20221;-89
2022/09/16 02:56:39;;;;;;;4.78;3.90;;;14.40;99.20;;;;;;5061091;28;20217;-88
2022/09/16 02:59:08;;;;;;;4.55;3.72;;;14.40;98.50;;;;;;5056907;28;20259;-89
2022/09/16 03:01:40;;;;;;;7.18;4.07;;;14.40;98.40;;;;;;5060552;28;20710;-89
2022/09/16 03:04:08;;;;;;;4.13;3.72;;;14.40;98.80;;;;;;5070916;28;20201;-90
2022/09/16 03:06:35;;;;;;;4.45;3.75;;;14.40;98.00;;;;;;5066802;28;20547;-89
2022/09/16 03:09:05;;;;;;;5.05;3.97;;;14.30;98.50;;;;;;5066037;28;20239;-89
2022/09/16 03:12:02;;;;;;;4.72;4.10;;;14.20;98.30;;;;;;5070262;28;20209;-89
2022/09/16 03:14:49;;;;;;;6.47;4.25;;;14.30;98.60;;;;;;5068554;28;20233;-89
2022/09/16 03:17:30;;;;;;;5.32;4.30;;;14.20;98.20;;;;;;5061666;28;20201;-89
2022/09/16 03:20:10;;;;;;;5.38;4.10;;;14.20;98.50;;;;;;5069431;28;20210;-89
2022/09/16 03:22:47;;;;;;;5.43;4.10;;;14.10;98.40;;;;;;5074828;28;20215;-89
2022/09/16 03:25:28;;;;;;;6.80;4.07;;;14.30;98.50;;;;;;5071224;28;20204;-89
2022/09/16 03:28:01;;;;;;;6.47;4.00;;;14.40;98.00;;;;;;5076325;28;20678;-89
2022/09/16 03:30:32;;;;;;;7.18;4.07;;;14.40;98.10;;;;;;5066883;28;20206;-90
2022/09/16 03:33:04;;;;;;;5.85;4.28;;;14.40;97.90;;;;;;5062887;28;20209;-89
2022/09/16 03:35:38;;;;;;;4.97;4.38;;;14.40;97.90;;;;;;5062847;28;20223;-89
2022/09/16 03:38:08;;;;;;;4.82;4.35;;;14.40;98.60;;;;;;5070712;28;20209;-89
2022/09/16 03:40:36;;;;;;;6.65;4.13;;;14.50;98.10;;;;;;5061335;28;20197;-89
2022/09/16 03:43:11;;;;;;;5.43;4.30;;;14.50;97.30;;;;;;5069773;28;20304;-89
2022/09/16 03:45:41;;;;;;;5.05;4.05;;;14.50;97.20;;;;;;5068952;28;20258;-89
2022/09/16 03:48:09;;;;;;;7.18;4.45;;;14.40;97.60;;;;;;5064436;28;20625;-88
2022/09/16 03:50:38;;;;;;;6.00;4.13;;;14.50;98.00;;;;;;5067807;28;20201;-90
2022/09/16 03:53:05;;;;;;;8.27;4.40;;;14.50;97.90;;;;;;5065938;28;20208;-89
2022/09/16 03:55:32;;;;;;;6.18;4.43;;;14.50;97.20;;;;;;5069365;28;20596;-89
2022/09/16 03:57:59;;;;;;;9.70;4.20;;;14.40;97.70;;;;;;5062995;28;20205;-89
2022/09/16 04:00:27;;;;;;;6.13;4.30;;;14.40;97.40;;;;;;5064034;28;20272;-89
2022/09/16 04:02:54;;;;;;;4.60;4.20;;;14.30;97.60;;;;;;5063683;28;20206;-89
2022/09/16 04:05:21;;;;;;;6.95;4.78;;;14.30;97.70;;;;;;5059701;28;20247;-89
2022/09/16 04:07:50;;;;;;;5.68;4.50;;;14.40;97.20;;;;;;5056579;28;20205;-89
2022/09/16 04:10:17;;;;;;;7.80;4.70;;;14.40;97.60;;;;;;5065288;28;20206;-89
2022/09/16 04:12:44;;;;;;;6.90;4.65;;;14.40;97.20;;;;;;5068406;28;20591;-90
2022/09/16 04:15:21;;;;;;;5.65;4.97;;;14.30;97.80;;;;;;5060510;28;20225;-89
2022/09/16 04:18:08;;;;;;;6.65;4.25;;;14.30;97.50;;;;;;5068748;28;20209;-89
2022/09/16 04:20:44;;;;;;;4.97;4.32;;;14.30;97.70;;;;;;5063410;28;20201;-89
2022/09/16 04:23:13;;;;;;;6.78;4.63;;;14.40;98.00;;;;;;5067547;28;20553;-88
2022/09/16 04:25:59;;;;;;;5.00;4.30;;;14.40;97.50;;;;;;5069643;28;20656;-89
2022/09/16 04:28:27;;;;;;;5.13;4.22;;;14.30;97.40;;;;;;5064769;28;20276;-89
2022/09/16 04:31:04;;;;;;;7.32;4.82;;;14.30;97.70;;;;;;5068778;28;20640;-89
2022/09/16 04:33:34;;;;;;;6.30;4.50;;;14.40;97.90;;;;;;5068183;28;20556;-88
2022/09/16 04:36:56;;;;;;;8.60;4.90;;;14.40;97.30;;;;;;5070915;28;20695;-88
2022/09/16 04:39:57;;;;;;;5.63;4.43;;;14.30;97.60;;;;;;5068235;28;20197;-88
2022/09/16 04:42:56;;;;;;;8.15;4.93;;;14.30;98.00;;;;;;5068082;28;20219;-92
2022/09/16 04:45:26;;;;;;;7.65;4.68;;;14.50;97.50;;;;;;5068649;28;20220;-89
2022/09/16 04:47:59;;;;;;;7.30;4.70;;;14.60;96.80;;;;;;5068915;28;20220;-89
2022/09/16 04:50:26;;;;;;;5.40;4.50;;;14.70;96.80;;;;;;5070345;28;20197;-89
2022/09/16 04:53:02;;;;;;;9.95;7.75;;;14.70;96.30;;;;;;5070112;28;20197;-89
2022/09/16 04:55:34;;;;;;;5.90;5.30;;;14.70;96.70;;;;;;5070910;28;20225;-89
2022/09/16 04:58:09;;;;;;;9.68;5.30;;;14.60;96.30;;;;;;5070509;28;20193;-89
2022/09/16 05:00:35;;;;;;;5.78;4.80;;;14.60;96.80;;;;;;5070697;28;20605;-88
2022/09/16 05:03:09;;;;;;;6.38;5.10;;;14.40;96.80;;;;;;5064451;28;20209;-89
2022/09/16 05:06:26;;;;;;;6.22;5.25;;;14.50;96.80;;;;;;5064017;28;20274;-88
2022/09/16 05:09:03;;;;;;;7.53;5.70;;;14.50;96.80;;;;;;5061333;28;20212;-88
2022/09/16 05:11:46;;;;;;;5.95;5.32;;;14.50;96.50;;;;;;5068487;28;20296;-88
2022/09/16 05:14:14;;;;;;;9.15;5.28;;;14.40;96.80;;;;;;5063778;28;20200;-88
2022/09/16 05:17:23;;;;;;;6.93;5.25;;;14.40;96.80;;;;;;5067418;28;20202;-87
2022/09/16 05:19:51;;;;;;;8.20;5.43;;;14.30;96.70;;;;;;5071180;28;20197;-87
2022/09/16 05:22:20;;;;;;;6.18;5.50;;;14.20;97.70;;;;;;5071231;28;20682;-87
2022/09/16 05:24:47;;;;;;;9.68;5.75;;;14.20;97.90;;;;;;5068280;28;20684;-92
2022/09/16 05:27:16;;;;;;;8.00;5.85;;;14.10;98.10;;;;;;5070841;28;20204;-88
2022/09/16 05:29:44;;;;;;;8.88;6.00;;;14.20;97.70;;;;;;5072026;28;20276;-87
2022/09/16 05:32:26;;;;;;;9.70;6.40;;;14.20;97.50;;;;;;5068935;28;20201;-88
2022/09/16 05:35:38;;;;;;;6.18;5.53;;;14.30;97.70;;;;;;5071898;28;20688;-87
2022/09/16 05:38:05;;;;;;;10.18;6.07;;;14.30;97.60;;;;;;5069474;28;20200;-88
2022/09/16 05:41:02;;;;;;;11.48;6.93;;;14.30;97.20;;;;;;5066655;28;20208;-88
2022/09/16 05:43:46;;;;;;;9.48;6.25;;;14.40;96.80;;;;;;5070735;28;20275;-89
2022/09/16 05:46:19;;;;;;;7.90;6.18;;;14.40;96.80;;;;;;5065185;28;20562;-89
2022/09/16 05:49:08;;;;;;;8.43;6.00;;;14.30;96.70;;;;;;5068237;28;20200;-87
2022/09/16 05:51:40;;;;;;;8.02;6.35;;;14.20;97.10;;;;;;5065818;28;20783;-88
2022/09/16 05:54:08;;;;;;;7.78;6.30;;;14.20;97.30;;;;;;5061068;28;20243;-87
2022/09/16 05:56:56;;;;;;;9.48;6.00;;;14.30;96.90;;;;;;5059900;28;20202;-88
2022/09/16 06:00:02;;;;;;;11.27;6.28;;;14.30;96.70;;;;;;5059321;28;20227;-87
2022/09/16 06:02:40;;;;;;;9.07;6.72;;;14.20;96.70;;;;;;5071806;28;20204;-87
2022/09/16 06:05:08;;;;;;;7.15;6.28;;;14.30;96.70;;;;;;5072246;28;20224;-87
2022/09/16 06:07:44;;;;;;;9.35;6.53;;;14.40;97.00;;;;;;5073052;28;20225;-87
2022/09/16 06:10:36;;;;;;;9.88;6.65;;;14.60;96.80;;;;;;5061863;28;20229;-87
2022/09/16 06:13:14;;;;;;;8.10;6.00;;;14.80;95.70;;;;;;5055107;28;20194;-88
2022/09/16 06:15:49;;;;;;;8.38;5.95;;;15.10;94.50;;;;;;5061384;28;20216;-87
2022/09/16 06:18:18;;;;;;;8.90;6.50;;;15.20;93.80;;;;;;5069170;28;20196;-87
2022/09/16 06:21:03;;;;;;;9.48;6.50;;;15.30;93.30;;;;;;5071570;28;20193;-87
2022/09/16 06:23:30;;;;;;;8.40;5.47;;;15.30;93.30;;;;;;5076695;28;20188;-87
2022/09/16 06:26:00;;;;;;;7.22;6.32;;;15.30;93.80;;;;;;5074282;28;20192;-89
2022/09/16 06:28:33;;;;;;;7.05;6.22;;;15.20;94.20;;;;;;5075167;28;20805;-88
2022/09/16 06:31:05;;;;;;;7.50;5.80;;;15.30;94.30;;;;;;5070296;28;20555;-88
2022/09/16 06:33:34;;;;;;;5.63;4.70;;;15.20;94.10;;;;;;5076448;28;20189;-86
2022/09/16 06:36:11;;;;;;;6.20;5.35;;;15.30;94.40;;;;;;5076102;28;20213;-89
2022/09/16 06:38:51;;;;;;;7.35;5.05;;;15.40;94.30;;;;;;5072967;28;20193;-88
2022/09/16 06:41:38;;;;;;;7.50;5.03;;;15.40;95.00;;;;;;5069536;28;20205;-88
2022/09/16 06:44:08;;;;;;;7.38;5.45;;;15.20;95.40;;;;;;5074321;28;20193;-87
2022/09/16 06:46:36;;;;;;;8.15;5.55;;;15.10;95.50;;;;;;5071932;28;20201;-88
2022/09/16 06:49:39;;;;;;;7.70;5.97;;;15.00;96.10;;;;;;5067662;28;20201;-88
2022/09/16 06:52:26;;;;;;;7.85;5.70;;;14.90;96.90;;;;;;5072784;28;20548;-86
2022/09/16 06:55:09;;;;;;;10.93;6.38;;;15.00;96.80;;;;;;5074690;28;20555;-86
2022/09/16 06:57:50;;;;;;;8.77;6.13;;;14.90;96.90;;;;;;5075444;28;20640;-86
2022/09/16 07:00:20;;;;;;;8.23;6.35;;;15.10;96.40;;;;;;5071747;28;20201;-87
2022/09/16 07:02:47;;;;;;;9.80;6.43;;;15.10;96.30;;;;;;5074076;28;20196;-86
2022/09/16 07:05:16;;;;;;;9.57;7.07;;;15.00;96.10;;;;;;5066296;28;20220;-86
2022/09/16 07:07:43;;;;;;;8.38;6.30;;;15.20;95.90;;;;;;5066032;28;20197;-86
2022/09/16 07:10:22;;;;;;;11.05;6.93;;;15.10;95.40;;;;;;5071831;28;20222;-86
2022/09/16 07:12:49;;;;;;;13.18;7.38;;;15.10;95.70;;;;;;5075126;28;20243;-86
2022/09/16 07:15:44;;;;;;;10.45;7.10;;;15.00;95.50;;;;;;5074775;28;20571;-86
2022/09/16 07:18:11;;;;;;;9.88;7.72;;;15.00;95.60;;;;;;5071628;28;20193;-88
2022/09/16 07:20:52;;;;;;;13.27;7.70;;;15.00;95.80;;;;;;5077252;28;20539;-86
2022/09/16 07:23:20;;;;;;;10.82;7.82;;;15.00;94.70;;;;;;5073962;28;20197;-87
2022/09/16 07:26:02;;;;;;;12.18;7.97;;;15.00;95.30;;;;;;5070337;28;20197;-87
2022/09/16 07:28:58;;;;;;;8.52;6.90;;;15.00;94.90;;;;;;5072462;28;20202;-86
2022/09/16 07:31:28;;;;;;;8.95;6.68;;;15.10;95.50;;;;;;5071577;28;21012;-86
2022/09/16 07:34:08;;;;;;;8.18;6.88;;;15.30;94.70;;;;;;5073351;28;20551;-86
2022/09/16 07:36:42;;;;;;;8.32;6.65;;;15.40;94.60;;;;;;5070663;28;20250;-87
2022/09/16 07:39:10;;;;;;;7.90;6.55;;;15.50;94.70;;;;;;5072978;28;20208;-86
2022/09/16 07:41:56;;;;;;;10.80;6.47;;;15.50;93.90;;;;;;5066623;28;20196;-86
2022/09/16 07:44:38;;;;;;;9.95;6.72;;;15.50;94.00;;;;;;5072663;28;20193;-87
2022/09/16 07:47:06;;;;;;;8.20;7.40;;;15.60;93.80;;;;;;5073122;28;20203;-87
2022/09/16 07:50:02;;;;;;;8.52;6.78;;;15.50;94.00;;;;;;5069431;28;20209;-86
2022/09/16 07:52:34;;;;;;;12.57;7.32;;;15.50;94.20;;;;;;5071367;28;20197;-86
2022/09/16 07:55:01;;;;;;;7.80;7.00;;;15.50;93.80;;;;;;5062121;28;20272;-85
2022/09/16 07:57:39;;;;;;;14.18;9.18;;;15.60;93.30;;;;;;5073729;28;20221;-86
2022/09/16 08:00:07;;;;;;;8.35;7.45;;;15.60;92.70;;;;;;5070208;28;20197;-86
2022/09/16 08:02:39;;;;;;;9.90;7.18;;;15.50;92.90;;;;;;5069525;28;20208;-86
2022/09/16 08:05:38;;;;;;;10.65;6.95;;;15.60;93.10;;;;;;5074953;28;20214;-87
2022/09/16 08:08:44;;;;;;;10.43;6.97;;;15.50;93.60;;;;;;5057934;28;20712;-86
2022/09/16 08:11:13;;;;;;;7.95;7.05;;;15.50;93.60;;;;;;5061444;28;20657;-85
2022/09/16 08:13:45;;;;;;;9.57;7.05;;;15.50;94.10;;;;;;5066288;28;20193;-85
2022/09/16 08:16:22;;;;;;;9.60;6.53;;;15.60;94.10;;;;;;5063466;28;20609;-85
2022/09/16 08:18:53;;;;;;;9.80;6.60;;;15.80;92.70;;;;;;5064096;28;20714;-85
2022/09/16 08:21:22;;;;;;;9.40;7.57;;;16.00;91.70;;;;;;5059911;28;20194;-86
2022/09/16 08:23:51;;;;;;;8.52;7.13;;;16.00;91.20;;;;;;5068626;28;20207;-86
2022/09/16 08:26:20;;;;;;;9.60;6.30;;;16.10;91.00;;;;;;5067411;28;20209;-86
2022/09/16 08:28:51;;;;;;;8.45;6.68;;;16.00;91.70;;;;;;5062751;28;20217;-86
2022/09/16 08:31:19;;;;;;;10.98;6.28;;;16.10;91.70;;;;;;5058901;28;20201;-87
2022/09/16 08:33:46;;;;;;;8.95;6.57;;;16.10;91.70;;;;;;5061955;28;20205;-86
2022/09/16 08:36:38;;;;;;;10.38;6.05;;;16.10;91.50;;;;;;5065882;28;20220;-87
2022/09/16 08:39:14;;;;;;;9.23;6.32;;;16.20;91.10;;;;;;5066648;28;20201;-87
2022/09/16 08:42:16;;;;;;;9.45;6.40;;;16.10;91.70;;;;;;5068184;28;20651;-86
2022/09/16 08:45:08;;;;;;;6.90;5.80;;;16.30;91.50;;;;;;5054978;28;20193;-86
2022/09/16 08:47:48;;;;;;;9.13;6.45;;;16.40;90.80;;;;;;5058700;28;20278;-87
2022/09/16 08:50:56;;;;;;;9.23;6.88;;;16.60;90.00;;;;;;5072516;28;20193;-88
2022/09/16 08:53:35;;;;;;;8.85;6.90;;;16.60;90.10;;;;;;5072665;28;20209;-86
2022/09/16 08:56:04;;;;;;;12.45;7.32;;;16.40;91.20;;;;;;5070292;28;20205;-88
2022/09/16 08:58:59;;;;;;;7.93;7.03;;;16.40;89.50;;;;;;5070856;28;20197;-86
2022/09/16 09:01:38;;;;;;;9.43;6.03;;;16.40;90.50;;;;;;5057892;28;20194;-87
2022/09/16 09:04:05;;;;;;;8.23;6.60;;;16.60;90.40;;;;;;5072078;28;20197;-87
2022/09/16 09:06:54;;;;;;;11.70;6.38;;;16.60;90.10;;;;;;5070761;28;20201;-87
2022/09/16 09:09:45;;;;;;;9.30;6.50;;;16.40;89.90;;;;;;5070235;28;20201;-86
2022/09/16 09:12:18;;;;;;;10.57;7.00;;;16.40;90.40;;;;;;5061465;28;20205;-87
2022/09/16 09:15:17;;;;;;;11.25;6.55;;;16.30;90.30;;;;;;5071996;28;20200;-86
2022/09/16 09:17:56;;;;;;;12.02;6.50;;;16.30;90.40;;;;;;5066494;28;20217;-87
2022/09/16 09:20:38;;;;;;;8.55;6.70;;;16.20;90.90;;;;;;5066518;28;20198;-87
2022/09/16 09:23:33;;;;;;;10.27;6.75;;;16.10;91.70;;;;;;5061132;28;20185;-88
2022/09/16 09:26:07;;;;;;;6.97;5.47;;;16.00;91.10;;;;;;5061721;28;20210;-88
2022/09/16 09:29:08;;;;;;;8.68;5.78;;;16.20;90.20;;;;;;5062016;28;20201;-88
2022/09/16 09:32:02;;;;;;;8.70;6.18;;;16.30;90.00;;;;;;5071445;28;20197;-88
2022/09/16 09:34:43;;;;;;;11.20;6.45;;;16.00;91.70;;;;;;5069180;28;20277;-88
2022/09/16 09:37:32;;;;;;;9.05;6.32;;;15.90;91.70;;;;;;5067477;28;20208;-89
2022/09/16 09:40:11;;;;;;;12.15;6.32;;;16.00;91.70;;;;;;5065477;28;20205;-89
2022/09/16 09:42:45;;;;;;;11.60;7.00;;;16.00;92.90;;;;;;5069413;28;20217;-88
2022/09/16 09:45:20;;;;;;;8.95;6.80;;;15.90;93.40;;;;;;5072475;28;20201;-89
2022/09/16 09:48:19;;;;;;;10.27;7.70;;;15.90;93.40;;;;;;5067209;28;20283;-88
2022/09/16 09:51:32;;;;;;;9.55;6.95;;;15.90;93.90;;;;;;5065018;28;20702;-88
2022/09/16 09:54:03;;;;;;;7.93;6.78;;;16.00;93.70;;;;;;5070445;28;20206;-88
2022/09/16 09:56:51;;;;;;;7.22;6.32;;;15.90;94.00;;;;;;5069113;28;20698;-88
2022/09/16 09:59:32;;;;;;;10.35;6.93;;;16.00;93.30;;;;;;5064902;28;20197;-87
2022/09/16 10:02:00;;;;;;;8.60;6.40;;;16.10;93.10;;;;;;5072548;28;20204;-87
2022/09/16 10:04:40;;;;;;;9.02;7.28;;;16.20;92.90;;;;;;5061752;28;20328;-87
2022/09/16 10:07:35;;;;;;;7.50;6.70;;;16.20;92.80;;;;;;5070989;28;20651;-87
2022/09/16 10:10:12;;;;;;;9.90;7.10;;;16.30;93.40;;;;;;5071021;28;20194;-87
2022/09/16 10:12:39;;;;;;;10.00;7.07;;;16.30;93.10;;;;;;5074510;28;20208;-86
2022/09/16 10:15:20;;;;;;;9.60;7.38;;;16.20;93.10;;;;;;5055284;28;20194;-87
2022/09/16 10:18:14;;;;;;;10.35;7.78;;;16.30;93.10;;;;;;5060718;28;20209;-88
2022/09/16 10:20:54;;;;;;;13.85;7.88;;;16.00;93.10;;;;;;5060223;28;20317;-87
2022/09/16 10:23:25;;;;;;;10.93;8.55;;;15.70;94.00;;;;;;5069575;28;20705;-87
2022/09/16 10:26:42;;;;;;;10.13;7.75;;;15.60;94.40;;;;;;5070417;28;20276;-87
2022/09/16 10:29:18;;;;;;;11.18;8.10;;;15.70;94.60;;;;;;5068494;28;20258;-87
2022/09/16 10:31:50;;;;;;;11.05;8.20;;;15.60;95.20;;;;;;5071779;28;20733;-88
2022/09/16 10:34:40;;;;;;;14.13;8.15;;;15.60;95.90;;;;;;5061473;28;20277;-85
2022/09/16 10:37:18;;;;;;;10.57;8.30;;;15.60;96.00;;;;;;5068541;28;20676;-89
2022/09/16 10:39:50;;;;;;;11.00;7.60;;;15.50;96.60;;;;;;5057853;28;20652;-87
2022/09/16 10:42:22;;;;;;;9.93;8.38;;;15.60;97.00;;;;;;5070162;28;20210;-88
2022/09/16 10:45:10;;;;;;;11.85;8.13;;;15.60;96.90;;;;;;5064465;28;20228;-88
2022/09/16 10:47:37;;;;;;;10.00;8.00;;;15.60;97.10;;;;;;5061403;28;20290;-88
2022/09/16 10:50:06;;;;;;;11.20;8.10;;;15.60;97.00;;;;;;5066712;28;20204;-88
2022/09/16 10:52:42;;;;;;;9.40;7.60;;;15.70;97.10;;;;;;5064746;28;20206;-89
2022/09/16 10:55:38;;;;;;;9.18;8.10;;;15.90;96.70;;;;;;5060079;28;20205;-88
2022/09/16 10:58:21;;;;;;;9.50;8.43;;;15.90;96.10;;;;;;5062052;28;20770;-88
2022/09/16 11:01:22;;;;;;;10.65;8.07;;;15.90;96.50;;;;;;5068036;28;20589;-88
2022/09/16 11:04:08;;;;;;;10.43;8.93;;;15.90;96.80;;;;;;5066408;28;20280;-88
2022/09/16 11:06:51;;;;;;;14.27;9.80;;;15.80;97.10;;;;;;5068430;28;20198;-88
2022/09/16 11:09:35;;;;;;;10.82;9.70;;;15.80;97.70;;;;;;5068456;28;20210;-88
2022/09/16 11:12:38;;;;;;;11.25;8.45;;;15.60;97.80;;;;;;5064902;28;20547;-88
2022/09/16 11:15:19;;;;;;;13.20;7.53;;;15.60;97.70;;;;;;4991584;28;20618;-88
2022/09/16 11:18:26;;;;;;;9.80;6.93;;;15.40;96.10;;;;;;4986940;28;20224;-88
2022/09/16 11:21:17;;;;;;;8.52;4.95;;;15.10;94.50;;;;;;4971789;28;20246;-88
2022/09/16 11:24:24;;;;;;;7.72;5.10;;;14.90;93.20;;;;;;4985059;28;20312;-88
2022/09/16 11:27:15;;;;;;;8.35;5.45;;;14.90;93.90;;;;;;4923081;29;20671;-87
2022/09/16 11:30:11;;;;;;;6.68;4.90;;;14.80;92.40;;;;;;4912374;29;20230;-88
2022/09/16 11:33:02;;;;;;;7.15;5.10;;;14.70;93.10;;;;;;4912388;29;20221;-87
2022/09/16 11:35:43;;;;;;;7.63;5.07;;;14.50;93.10;;;;;;4916453;29;20214;-88
2022/09/16 11:38:20;;;;;;;9.57;5.13;;;14.40;94.50;;;;;;4905021;29;20963;-88
2022/09/16 11:40:53;;;;;;;8.82;5.72;;;14.40;94.70;;;;;;4913689;29;20909;-86
2022/09/16 11:43:45;;;;;;;7.95;5.75;;;14.40;94.60;;;;;;4909942;29;20659;-86
2022/09/16 11:46:28;;;;;;;6.88;5.55;;;14.30;94.80;;;;;;4912799;29;20256;-87
2022/09/16 11:49:18;;;;;;;7.97;5.55;;;14.20;95.50;;;;;;4916359;29;20206;-88
2022/09/16 11:52:21;;;;;;;7.38;4.95;;;14.00;95.10;;;;;;4924900;28;20214;-88
2022/09/16 11:55:25;;;;;;;6.72;5.00;;;13.70;95.20;;;;;;4989827;28;20255;-87
2022/09/16 11:58:21;;;;;;;6.10;5.07;;;13.40;95.90;;;;;;5035167;28;20218;-87
2022/09/16 12:16:13;;;;;;;5.78;3.85;;;12.90;97.00;;;;;;5072836;28;20185;-86
2022/09/16 12:22:41;;;;;;;5.95;4.15;;;13.10;97.20;;;;;;5066766;28;20199;-86
2022/09/16 12:25:42;;;;;;;4.75;4.25;;;13.30;96.50;;;;;;5085354;28;20562;-86
2022/09/16 12:28:50;;;;;;;6.13;4.20;;;13.40;96.50;;;;;;5070778;28;20198;-87
2022/09/16 12:31:28;;;;;;;7.32;4.75;;;13.30;96.50;;;;;;5078573;28;20197;-87
2022/09/16 12:34:20;;;;;;;6.40;4.88;;;13.30;96.50;;;;;;5077177;28;20193;-87
2022/09/16 12:44:20;;;;;;;5.15;3.92;;;13.30;96.50;;;;;;5066614;28;20203;-86
2022/09/16 12:47:13;;;;;;;5.40;4.13;;;13.30;95.70;;;;;;5069036;28;20201;-86
2022/09/16 12:50:08;;;;;;;5.18;3.92;;;13.30;95.60;;;;;;5085751;28;20198;-87
2022/09/16 12:53:06;;;;;;;5.10;3.83;;;13.30;96.50;;;;;;5079253;28;20232;-86
2022/09/16 12:56:00;;;;;;;7.47;4.50;;;13.30;96.50;;;;;;5067619;28;20193;-88
2022/09/16 12:59:15;;;;;;;7.68;4.10;;;13.20;96.50;;;;;;5078806;28;20216;-88
2022/09/16 13:01:46;;;;;;;5.45;3.70;;;13.10;96.30;;;;;;5076399;28;20205;-87
2022/09/16 13:04:20;;;;;;;3.97;3.50;;;13.30;96.50;;;;;;5066946;28;20202;-85
2022/09/16 13:07:00;;;;;;;6.75;3.85;;;13.30;96.50;;;;;;5069893;28;20205;-87
2022/09/16 13:09:32;;;;;;;6.03;3.80;;;13.40;96.10;;;;;;5071508;28;20232;-88
2022/09/16 13:12:22;;;;;;;4.90;3.10;;;13.30;96.20;;;;;;5073760;28;20292;-87
2022/09/16 13:15:09;;;;;;;6.07;3.08;;;13.20;95.00;;;;;;5073586;28;20200;-87
2022/09/16 13:17:52;;;;;;;4.18;2.60;;;13.20;95.30;;;;;;5069433;28;20228;-87
2022/09/16 13:21:08;;;;;;;3.03;2.72;;;13.10;94.50;;;;;;5061465;28;20213;-87
2022/09/16 13:23:51;;;;;;;3.60;2.80;;;13.00;95.00;;;;;;5069189;28;20332;-88
2022/09/16 13:26:21;;;;;;;3.17;2.63;;;13.20;95.90;;;;;;5072649;28;20264;-87
2022/09/16 13:29:23;;;;;;;3.90;2.67;;;13.20;94.50;;;;;;5067253;28;20229;-88
2022/09/16 13:31:51;;;;;;;2.60;2.40;;;13.10;93.40;;;;;;5065057;28;20201;-88
2022/09/16 13:34:39;;;;;;;;;;;;;;;;;;;;;
2022/09/16 13:37:15;;;;;;;2.78;2.25;;;13.20;94.70;;;;;;5072008;28;20231;-87
2022/09/16 13:39:43;;;;;;;3.50;2.42;;;13.40;94.60;;;;;;5070157;28;20204;-86
2022/09/16 13:42:20;;;;;;;3.70;2.70;;;13.40;95.00;;;;;;5066365;28;20550;-86
2022/09/16 13:44:51;;;;;;;5.50;3.38;;;13.50;94.40;;;;;;5063210;28;20197;-86
2022/09/16 13:50:43;;;;;;;3.33;2.85;;;13.60;95.60;;;;;;5065245;28;20185;-86
2022/09/16 13:53:29;;;;;;;3.53;2.60;;;13.70;94.60;;;;;;5064584;28;20203;-86
2022/09/16 13:56:35;;;;;;;4.47;3.50;;;13.80;94.90;;;;;;5060931;28;20206;-85
2022/09/16 13:59:29;;;;;;;4.28;3.13;;;13.80;94.20;;;;;;5056511;28;20217;-86
2022/09/16 14:02:15;;;;;;;3.20;2.78;;;13.70;95.10;;;;;;5066936;28;20232;-86
2022/09/16 14:05:19;;;;;;;3.47;3.10;;;13.80;94.10;;;;;;5060072;28;20213;-85
2022/09/16 14:08:14;;;;;;;4.07;2.83;;;13.80;94.70;;;;;;5070649;28;21843;-86
2022/09/16 14:10:54;;;;;;;4.60;2.55;;;13.70;94.10;;;;;;5066602;28;20665;-86
2022/09/16 14:13:39;;;;;;;4.07;3.08;;;13.50;93.30;;;;;;5056941;28;20226;-86
2022/09/16 14:16:45;;;;;;;5.75;3.63;;;13.30;94.50;;;;;;5070090;28;20224;-85
2022/09/16 14:19:31;;;;;;;10.18;8.20;;;13.30;93.50;;;;;;5071868;28;20223;-86
2022/09/16 14:22:22;;;;;;;4.93;4.38;;;13.40;92.70;;;;;;5076354;28;20189;-85